Saint Johns, Michigan
Current Conditions -  °F | °C
As of 10:53 AM on Friday 19 Dec 2014 (Local Time) from KLAN Reporting Station
Overcast Overcast  
Wind Chill: 17°   Ceiling: 1500
Heat Index: 25°   Visibility: 10mi
Dew Point: 19°   Wind: 7mph
Humidity: 78%   Direction: 60°ENE
Pressure: 30.28"   Gusts: NA
Location:  43°N, 84.56°W
Report Text: KLAN 191553Z 06006KT 10SM OVC015 M04/M07 A3028 RMK AO2 SLP265 T10391072
Loading
Personal Weather Stations






























Interactive Weather Map New forecast layout! Learn more

10-Day Weather Forecast

Advertisements
Track Severe Weather on mobile